Latest Weather Observations for Bedout Island

IDW60801

Issued at 10:03 am WST Tuesday 22 September 2020 (issued every 10 minutes, with the page automatically refreshed every 10 minutes)

About weather observations | Map of weather stations | Latest weather observations for WA | Other Formats
Station Details ID: 004100 Name: BEDOUT ISLAND Lat: -19.59 Lon: 119.10 Height: 8.6 m
Data from the previous 72 hours. | See also: Recent months at Bedout Island
Date/Time
WST
Temp
°C
App
Temp
°C
Dew
Point
°C
Rel
Hum
%
Delta-T
°C
Wind Press
QNH
hPa
Press
MSL
hPa
Rain since
9am
mm
Dir  Spd
km/h
Gust
km/h
Spd
kts
Gust
kts
22/10:00am 26.9 20.2 12.2 40 8.5 ESE 39 46 21 25 1015.3 1015.3 -
22/09:30am 26.2 18.6 11.9 41 8.2 E 43 50 23 27 1015.3 1015.3 -
22/09:00am 26.0 18.5 11.0 39 8.4 ESE 41 46 22 25 1015.4 1015.4 -
22/08:30am 25.9 18.1 11.3 40 8.3 ESE 43 48 23 26 1015.2 1015.2 -
22/08:00am 25.6 19.2 13.1 46 7.3 ESE 39 44 21 24 1015.0 1015.0 -
22/07:30am 25.2 19.4 14.0 49 6.6 ESE 37 44 20 24 1014.7 1014.7 -
22/07:00am 24.6 17.7 11.5 44 7.4 ESE 39 44 21 24 1014.5 1014.5 -
22/06:30am 24.2 17.9 11.2 44 7.3 ESE 35 43 19 23 1014.3 1014.3 -
22/06:00am 24.5 17.4 9.6 39 8.1 ESE 37 41 20 22 1013.9 1013.9 -
22/05:30am 25.1 18.8 12.3 45 7.3 SE 37 44 20 24 1013.6 1013.6 -
22/05:00am 24.7 20.6 13.9 51 6.4 SE 28 33 15 18 1013.3 1013.3 -
22/04:30am 24.1 23.4 20.2 79 2.5 S 24 28 13 15 1013.0 1013.0 -
22/04:00am 23.6 23.2 21.7 89 1.3 S 26 33 14 18 1012.9 1012.9 -
22/03:30am 23.5 22.7 23.0 97 0.3 S 32 37 17 20 1012.7 1012.7 -
22/03:00am 24.1 24.0 22.9 93 0.8 S 28 32 15 17 1012.9 1012.9 -
22/02:30am 24.0 24.4 23.7 98 0.2 SSW 28 32 15 17 1012.9 1012.9 -
22/02:00am 24.3 25.3 24.1 99 0.1 SSW 26 32 14 17 1012.9 1012.9 -
22/01:52am 24.2 28.3 24.0 99 0.1 S 9 32 5 17 1012.8 1012.8 -
22/01:30am 24.2 29.7 24.0 99 0.1 S 2 6 1 3 1012.8 1012.8 -
22/01:00am 24.4 30.0 24.2 99 0.1 S 2 6 1 3 1012.9 1012.9 -
22/12:30am 24.3 29.8 24.0 98 0.2 S 2 13 1 7 1013.0 1013.0 -
22/12:00am 24.0 27.6 23.7 98 0.2 SE 11 11 6 6 1013.0 1013.0 -
 
Date/Time
WST
Temp
°C
App
Temp
°C
Dew
Point
°C
Rel
Hum
%
Delta-T
°C
Wind Press
QNH
hPa
Press
MSL
hPa
Rain since
9am
mm
Dir  Spd
km/h
Gust
km/h
Spd
kts
Gust
kts
21/11:30pm 24.3 28.2 23.6 96 0.5 ESE 9 9 5 5 1013.2 1013.2 -
21/11:00pm 24.4 27.2 22.3 88 1.4 E 11 13 6 7 1013.2 1013.2 -
21/10:30pm 24.4 26.9 21.7 85 1.8 E 11 11 6 6 1013.3 1013.3 -
21/10:00pm 24.4 26.4 20.7 80 2.4 ENE 11 13 6 7 1013.4 1013.4 -
21/09:30pm 24.1 25.9 21.2 84 1.9 ENE 13 15 7 8 1013.5 1013.5 -
21/09:00pm 24.1 25.5 20.4 80 2.4 ENE 13 15 7 8 1013.4 1013.4 -
21/08:30pm 24.0 25.0 20.3 80 2.4 NE 15 17 8 9 1013.4 1013.4 -
21/08:00pm 24.0 25.5 20.5 81 2.3 NE 13 15 7 8 1013.3 1013.3 -
21/07:30pm 24.0 25.9 21.3 85 1.8 NE 13 15 7 8 1013.0 1013.0 -
21/07:00pm 24.6 25.7 19.7 74 3.2 NE 13 15 7 8 1012.8 1012.8 -
21/06:30pm 25.1 25.0 17.8 64 4.6 NE 15 17 8 9 1012.6 1012.6 -
21/06:00pm 25.5 24.4 15.2 53 6.2 ENE 15 17 8 9 1012.3 1012.3 -
21/05:30pm 26.0 24.7 15.7 53 6.3 ENE 17 19 9 10 1012.0 1012.0 -
21/05:00pm 26.6 24.5 14.7 48 7.2 ENE 19 20 10 11 1011.8 1011.8 -
21/04:30pm 27.2 25.1 13.5 42 8.1 ENE 17 20 9 11 1011.8 1011.8 -
21/04:00pm 26.8 24.1 13.5 44 7.8 ENE 20 24 11 13 1011.9 1011.9 -
21/03:30pm 27.4 24.4 12.6 40 8.6 E 20 24 11 13 1012.0 1012.0 -
21/03:00pm 27.6 23.8 12.4 39 8.8 E 24 28 13 15 1012.3 1012.3 -
21/02:30pm 27.8 23.4 11.8 37 9.2 E 26 28 14 15 1012.4 1012.4 -
21/02:00pm 27.9 22.9 11.0 35 9.6 E 28 32 15 17 1012.7 1012.7 -
21/01:30pm 27.8 22.3 10.5 34 9.8 E 30 35 16 19 1012.9 1012.9 -
21/01:00pm 27.6 20.9 8.0 29 10.6 ESE 33 37 18 20 1013.1 1013.1 -
21/12:30pm 27.3 19.9 8.2 30 10.3 ESE 37 43 20 23 1013.5 1013.5 -
21/12:00pm 27.2 19.4 8.1 30 10.3 ESE 39 44 21 24 1014.1 1014.1 -
21/11:30am 26.8 18.8 7.3 29 10.4 ESE 39 46 21 25 1014.4 1014.4 -
21/11:00am 26.9 18.5 7.4 29 10.4 ESE 41 48 22 26 1014.8 1014.8 -
21/10:30am 26.9 18.8 8.8 32 9.9 ESE 41 50 22 27 1015.1 1015.1 -
21/10:00am 26.6 18.0 6.6 28 10.5 ESE 41 48 22 26 1015.3 1015.3 -
21/09:30am 26.1 17.2 7.7 31 9.8 ESE 44 50 24 27 1015.4 1015.4 -
21/09:00am 25.6 16.4 8.1 33 9.4 ESE 46 56 25 30 1015.5 1015.5 -
21/08:30am 25.6 16.9 8.6 34 9.2 ESE 44 50 24 27 1015.4 1015.4 -
21/08:00am 25.7 17.9 9.9 37 8.7 ESE 41 48 22 26 1015.1 1015.1 -
21/07:30am 25.3 16.7 8.3 34 9.1 ESE 43 48 23 26 1014.7 1014.7 -
21/07:00am 24.9 16.1 9.6 38 8.4 ESE 46 54 25 29 1014.2 1014.2 -
21/06:30am 25.3 14.2 6.5 30 9.8 ESE 54 65 29 35 1013.6 1013.6 -
21/06:00am 25.0 15.1 11.2 42 7.8 ESE 54 63 29 34 1013.3 1013.3 -
21/05:30am 25.1 16.7 13.6 49 6.7 ESE 50 61 27 33 1013.0 1013.0 -
21/05:00am 25.4 18.1 14.5 51 6.5 ESE 46 52 25 28 1012.5 1012.5 -
21/04:30am 25.2 21.2 16.6 59 5.3 SE 33 43 18 23 1012.2 1012.2 -
21/04:29am 25.2 21.1 16.4 58 5.4 SE 33 43 18 23 1012.2 1012.2 -
21/04:00am 24.2 26.2 23.9 98 0.2 S 20 24 11 13 1012.1 1012.1 -
21/03:30am 24.0 26.5 23.8 99 0.1 S 17 20 9 11 1011.9 1011.9 -
21/03:00am 24.5 27.2 24.2 98 0.2 SSW 17 20 9 11 1012.0 1012.0 -
21/02:30am 24.9 27.5 24.6 98 0.2 SW 19 22 10 12 1012.0 1012.0 -
21/02:00am 24.9 27.3 24.6 98 0.2 SW 20 24 11 13 1012.1 1012.1 -
21/01:30am 25.0 27.1 24.7 98 0.2 WSW 22 26 12 14 1012.0 1012.0 -
21/01:00am 24.9 26.2 24.6 98 0.2 W 26 30 14 16 1012.0 1012.0 -
21/12:30am 24.8 25.2 24.5 98 0.2 W 30 33 16 18 1012.1 1012.1 -
21/12:00am 24.7 25.1 24.5 99 0.1 W 30 35 16 19 1012.2 1012.2 -
 
Date/Time
WST
Temp
°C
App
Temp
°C
Dew
Point
°C
Rel
Hum
%
Delta-T
°C
Wind Press
QNH
hPa
Press
MSL
hPa
Rain since
9am
mm
Dir  Spd
km/h
Gust
km/h
Spd
kts
Gust
kts
20/11:30pm 25.0 25.3 24.8 99 0.1 W 32 35 17 19 1012.3 1012.3 -
20/11:00pm 24.9 25.0 24.6 98 0.2 W 32 35 17 19 1012.5 1012.5 -
20/10:30pm 25.2 25.5 24.9 98 0.2 W 32 35 17 19 1012.5 1012.5 -
20/10:00pm 25.0 26.0 24.8 99 0.1 WNW 28 32 15 17 1012.7 1012.7 -
20/09:30pm 25.1 26.2 24.9 99 0.1 WNW 28 32 15 17 1012.7 1012.7 -
20/09:00pm 24.7 25.9 24.5 99 0.1 NW 26 30 14 16 1012.5 1012.5 -
20/08:30pm 24.7 25.9 24.5 99 0.1 WNW 26 30 14 16 1012.4 1012.4 -
20/08:00pm 24.8 26.1 24.6 99 0.1 WNW 26 30 14 16 1012.2 1012.2 -
20/07:30pm 24.9 26.2 24.7 99 0.1 WNW 26 30 14 16 1011.8 1011.8 -
20/07:00pm 25.1 26.2 24.9 99 0.1 WNW 28 32 15 17 1011.6 1011.6 -
20/06:30pm 25.1 26.6 24.9 99 0.1 WNW 26 30 14 16 1011.3 1011.3 -
20/06:00pm 25.4 27.4 25.2 99 0.1 WNW 24 28 13 15 1011.0 1011.0 -
20/05:30pm 26.1 28.1 25.8 98 0.2 WNW 26 30 14 16 1010.9 1010.9 -
20/05:00pm 27.0 33.4 26.7 98 0.2 WNW 6 24 3 13 1010.8 1010.8 -
20/04:30pm 27.7 31.9 27.4 98 0.2 WNW 20 24 11 13 1010.8 1010.8 -
20/04:00pm 28.0 32.5 27.7 98 0.2 WNW 20 22 11 12 1010.8 1010.8 -
20/03:30pm 28.2 34.8 27.7 97 0.4 W 9 20 5 11 1010.8 1010.8 -
20/03:00pm 28.6 33.2 27.9 96 0.5 W 20 22 11 12 1010.9 1010.9 -
20/02:30pm 28.6 32.9 27.5 94 0.8 W 20 22 11 12 1011.1 1011.1 -
20/02:00pm 28.5 32.9 27.6 95 0.7 W 20 22 11 12 1011.3 1011.3 -
20/01:30pm 28.7 33.2 27.8 95 0.7 W 20 22 11 12 1011.6 1011.6 -
20/01:00pm 28.7 32.9 27.1 91 1.2 W 19 22 10 12 1011.9 1011.9 -
20/12:30pm 28.8 33.4 27.6 93 0.9 W 19 20 10 11 1012.3 1012.3 -
20/12:00pm 28.6 33.3 27.7 95 0.7 W 19 20 10 11 1012.7 1012.7 -
20/11:30am 28.9 34.3 28.2 96 0.5 WSW 17 19 9 10 1013.1 1013.1 -
20/11:00am 28.6 34.4 28.3 98 0.2 WSW 15 17 8 9 1013.3 1013.3 -
20/10:30am 28.1 33.6 27.8 98 0.2 WSW 15 17 8 9 1013.5 1013.5 -
20/10:00am 27.9 32.9 27.6 98 0.2 WSW 17 20 9 11 1013.8 1013.8 -
20/09:30am 28.1 33.2 27.8 98 0.2 WSW 17 20 9 11 1013.8 1013.8 -
20/09:00am 27.5 31.6 27.2 98 0.2 WSW 20 24 11 13 1014.0 1014.0 -
20/08:30am 27.0 30.5 26.8 99 0.1 WSW 22 26 12 14 1013.8 1013.8 -
20/08:00am 26.2 28.9 26.2 100 0.0 WSW 24 28 13 15 1013.7 1013.7 -
20/07:30am 25.7 28.4 25.7 100 0.0 WSW 22 26 12 14 1013.3 1013.3 -
20/07:00am 24.8 26.6 24.8 100 0.0 WSW 24 28 13 15 1012.9 1012.9 -
20/06:30am 24.3 25.4 24.3 100 0.0 WSW 26 30 14 16 1012.5 1012.5 -
20/06:00am 24.1 24.7 24.1 100 0.0 WSW 28 32 15 17 1012.3 1012.3 -
20/05:30am 24.1 23.9 24.1 100 0.0 SW 32 35 17 19 1011.8 1011.8 -
20/05:00am 24.2 24.1 24.2 100 0.0 WSW 32 35 17 19 1011.4 1011.4 -
20/04:30am 24.3 24.6 24.3 100 0.0 WSW 30 33 16 18 1011.3 1011.3 -
20/04:00am 24.3 24.6 24.3 100 0.0 WSW 30 35 16 19 1011.0 1011.0 -
20/03:30am 24.6 25.1 24.6 100 0.0 WSW 30 33 16 18 1010.9 1010.9 -
20/03:00am 24.7 25.7 24.7 100 0.0 WSW 28 33 15 18 1010.9 1010.9 -
20/02:30am 24.8 25.3 24.6 99 0.1 WSW 30 33 16 18 1010.9 1010.9 -
20/02:00am 24.9 26.2 24.7 99 0.1 WSW 26 30 14 16 1011.1 1011.1 -
20/01:30am 24.7 30.5 24.5 99 0.1 W 2 6 1 3 1011.2 1011.2 -
20/01:00am 24.6 30.4 24.6 100 0.0 W 2 6 1 3 1011.5 1011.5 -
20/12:30am 24.6 30.4 24.6 100 0.0 W 2 6 1 3 1011.9 1011.9 -
20/12:00am 24.6 30.4 24.6 100 0.0 W 2 6 1 3 1012.2 1012.2 -
 
Date/Time
WST
Temp
°C
App
Temp
°C
Dew
Point
°C
Rel
Hum
%
Delta-T
°C
Wind Press
QNH
hPa
Press
MSL
hPa
Rain since
9am
mm
Dir  Spd
km/h
Gust
km/h
Spd
kts
Gust
kts
19/11:30pm 24.7 30.6 24.7 100 0.0 W 2 6 1 3 1012.4 1012.4 -
19/11:00pm 24.4 30.1 24.4 100 0.0 W 2 6 1 3 1012.6 1012.6 -
19/10:30pm 24.5 30.3 24.5 100 0.0 W 2 6 1 3 1012.8 1012.8 -
19/10:00pm 24.4 30.1 24.4 100 0.0 W 2 6 1 3 1012.8 1012.8 -
19/09:30pm 24.1 25.1 24.1 100 0.0 W 26 28 14 15 1012.9 1012.9 -
19/09:00pm 24.1 24.7 24.1 100 0.0 W 28 30 15 16 1012.9 1012.9 -
19/08:30pm 24.3 25.8 24.3 100 0.0 W 24 28 13 15 1012.8 1012.8 -
19/08:00pm 24.3 25.4 24.3 100 0.0 W 26 30 14 16 1012.7 1012.7 -
19/07:30pm 24.3 25.4 24.3 100 0.0 W 26 28 14 15 1012.5 1012.5 -
19/07:00pm 24.4 25.9 24.4 100 0.0 W 24 28 13 15 1012.1 1012.1 -
19/06:30pm 24.6 26.3 24.6 100 0.0 WNW 24 28 13 15 1011.8 1011.8 -
19/06:00pm 25.0 26.9 25.0 100 0.0 WNW 24 28 13 15 1011.6 1011.6 -
19/05:30pm 25.6 28.1 25.4 99 0.1 WNW 22 26 12 14 1011.4 1011.4 -
19/05:00pm 26.5 29.6 26.3 99 0.1 WNW 22 26 12 14 1011.2 1011.2 -
19/04:30pm 27.1 31.1 26.8 98 0.2 WNW 19 22 10 12 1011.1 1011.1 -
19/04:00pm 27.6 31.8 27.3 98 0.2 WNW 20 24 11 13 1011.0 1011.0 -
19/03:30pm 27.8 32.1 27.5 98 0.2 WNW 20 22 11 12 1010.9 1010.9 -
19/03:00pm 28.4 33.2 28.1 98 0.2 W 20 22 11 12 1011.0 1011.0 -
19/02:30pm 27.7 32.1 27.4 98 0.2 W 19 22 10 12 1011.0 1011.0 -
19/02:00pm 28.3 32.9 27.6 96 0.5 W 19 22 10 12 1011.1 1011.1 -
19/01:30pm 29.1 33.9 27.9 93 0.9 W 19 20 10 11 1011.3 1011.3 -
19/01:00pm 27.9 32.9 27.6 98 0.2 W 17 20 9 11 1011.8 1011.8 -
19/12:30pm 28.8 33.6 27.9 95 0.7 W 19 20 10 11 1012.1 1012.1 -
19/12:00pm 28.7 35.6 28.2 97 0.4 WSW 9 20 5 11 1012.5 1012.5 -
19/11:30am 28.7 33.9 28.0 96 0.5 W 17 20 9 11 1012.8 1012.8 -
19/11:00am 28.0 33.4 27.7 98 0.2 W 15 19 8 10 1013.3 1013.3 -
19/10:30am 28.4 34.1 28.1 98 0.2 W 15 17 8 9 1013.7 1013.7 -

Other formats

Comma delimited format used in spreadsheet applications
http://www.bom.gov.au/fwo/IDW60801/IDW60801.94310.axf

JavaScript Object Notation format (JSON) in row-major order
http://www.bom.gov.au/fwo/IDW60801/IDW60801.94310.json

Data quality

Most of these data are generated automatically and are frequently updated. Quality checks on data are not normally performed. It is possible for incorrect values to appear. Refer to information at About Latest Weather Observations and please check the disclaimer before using these data.